Time;durP1;ratioP1;P1;durP2;ratioP2;P2;SDS_P1;SDS_P2;PMS_P1;PMS_P2;Temp;Humidity;BMP_temperature;BMP_pressure;BME280_temperature;BME280_humidity;BME280_pressure;Samples;Min_cycle;Max_cycle;Signal;HPM_P1;HPM_P2
2022/09/25 00:00:32;;;;;;;0.80;0.63;;;23.30;57.50;;;;;;5059329;28;20029;-44
2022/09/25 00:02:58;;;;;;;0.63;0.50;;;23.30;57.40;;;;;;5059666;28;20033;-44
2022/09/25 00:05:24;;;;;;;0.57;0.50;;;23.20;57.20;;;;;;5052545;28;20036;-42
2022/09/25 00:07:50;;;;;;;0.40;0.40;;;23.20;57.00;;;;;;5053569;28;20033;-42
2022/09/25 00:10:17;;;;;;;0.67;0.67;;;23.20;56.90;;;;;;5065001;28;20088;-43
2022/09/25 00:12:43;;;;;;;0.90;0.70;;;23.20;56.90;;;;;;5066295;28;20497;-43
2022/09/25 00:15:10;;;;;;;0.73;0.57;;;23.10;56.70;;;;;;5061555;28;20036;-43
2022/09/25 00:17:36;;;;;;;0.80;0.50;;;23.10;56.60;;;;;;5063888;28;20040;-45
2022/09/25 00:20:02;;;;;;;1.15;0.60;;;23.10;56.70;;;;;;5050409;28;20037;-45
2022/09/25 00:22:29;;;;;;;0.75;0.57;;;23.00;56.70;;;;;;5046992;28;20029;-44
2022/09/25 00:24:55;;;;;;;0.57;0.50;;;23.00;56.60;;;;;;5061055;28;20033;-55
2022/09/25 00:27:21;;;;;;;0.60;0.60;;;23.00;56.70;;;;;;5064111;28;20036;-55
2022/09/25 00:29:47;;;;;;;4.50;0.60;;;22.90;56.40;;;;;;5062314;28;20025;-45
2022/09/25 00:32:14;;;;;;;3.80;0.65;;;22.90;56.50;;;;;;5049826;28;20045;-47
2022/09/25 00:34:40;;;;;;;2.22;0.50;;;22.90;56.40;;;;;;5058510;28;20061;-44
2022/09/25 00:37:06;;;;;;;0.60;0.50;;;22.80;56.30;;;;;;5054842;28;20045;-36
2022/09/25 00:39:33;;;;;;;2.65;0.52;;;22.80;56.10;;;;;;5050351;28;20029;-44
2022/09/25 00:41:59;;;;;;;1.75;0.60;;;22.80;56.20;;;;;;5063499;28;20028;-44
2022/09/25 00:44:51;;;;;;;0.80;0.50;;;22.70;56.10;;;;;;5038999;28;20025;-57
2022/09/25 00:47:19;;;;;;;2.65;0.47;;;22.70;55.70;;;;;;5062653;28;20035;-53
2022/09/25 00:49:45;;;;;;;0.57;0.50;;;22.60;55.90;;;;;;5054648;28;20068;-50
2022/09/25 00:52:12;;;;;;;0.82;0.60;;;22.60;56.00;;;;;;5062031;28;20067;-53
2022/09/25 00:54:46;;;;;;;3.38;0.50;;;22.60;55.90;;;;;;5018155;28;20058;-57
2022/09/25 00:57:14;;;;;;;0.50;0.50;;;22.50;55.90;;;;;;5046568;28;20040;-45
2022/09/25 00:59:43;;;;;;;0.77;0.50;;;22.50;56.00;;;;;;5063469;28;20021;-58
2022/09/25 01:02:12;;;;;;;0.60;0.50;;;22.50;56.00;;;;;;5062489;28;20035;-57
2022/09/25 01:04:39;;;;;;;0.73;0.60;;;22.40;55.80;;;;;;5054959;28;20021;-58
2022/09/25 01:07:06;;;;;;;0.90;0.70;;;22.40;56.00;;;;;;5063480;28;20059;-56
2022/09/25 01:09:33;;;;;;;0.60;0.60;;;22.40;56.10;;;;;;5061354;28;20025;-59
2022/09/25 01:11:59;;;;;;;0.50;0.47;;;22.30;56.00;;;;;;5062346;28;20025;-57
2022/09/25 01:14:25;;;;;;;0.88;0.50;;;22.30;56.10;;;;;;5061236;28;20036;-56
2022/09/25 01:16:58;;;;;;;1.77;0.57;;;22.20;56.00;;;;;;5062052;28;20079;-52
2022/09/25 01:20:07;;;;;;;0.43;0.43;;;22.20;55.70;;;;;;5044775;28;20043;-58
2022/09/25 01:22:36;;;;;;;0.30;0.30;;;22.10;55.60;;;;;;5043407;28;20044;-45
2022/09/25 01:25:10;;;;;;;0.45;0.45;;;22.00;55.50;;;;;;5039686;28;20024;-37
2022/09/25 01:27:43;;;;;;;0.60;0.60;;;22.00;55.80;;;;;;5056321;28;20027;-36
2022/09/25 01:30:17;;;;;;;2.40;0.57;;;22.00;56.00;;;;;;5060810;28;20096;-41
2022/09/25 01:33:08;;;;;;;0.68;0.50;;;22.00;55.90;;;;;;5030415;28;20781;-41
2022/09/25 01:35:48;;;;;;;0.52;0.40;;;21.90;56.00;;;;;;5075547;28;20040;-40
2022/09/25 01:38:14;;;;;;;1.88;0.47;;;21.90;56.10;;;;;;5072308;28;20040;-46
2022/09/25 01:40:58;;;;;;;1.10;0.57;;;21.90;56.10;;;;;;5071814;28;20031;-47
2022/09/25 01:43:49;;;;;;;2.95;0.63;;;21.80;56.10;;;;;;5070145;28;20077;-45
2022/09/25 01:46:20;;;;;;;1.17;0.50;;;21.80;56.20;;;;;;5069553;28;20035;-45
2022/09/25 01:48:48;;;;;;;0.80;0.55;;;21.80;56.30;;;;;;5071117;28;20039;-47
2022/09/25 01:51:18;;;;;;;0.82;0.60;;;21.70;56.50;;;;;;5066742;28;20029;-48
2022/09/25 01:54:03;;;;;;;0.60;0.50;;;21.70;56.60;;;;;;5069091;28;20059;-45
2022/09/25 01:56:38;;;;;;;3.80;0.60;;;21.70;56.90;;;;;;5070326;28;20032;-46
2022/09/25 01:59:16;;;;;;;3.10;0.60;;;21.70;57.00;;;;;;5074350;28;20562;-46
2022/09/25 02:01:42;;;;;;;0.75;0.60;;;21.70;57.30;;;;;;5070891;28;20041;-45
2022/09/25 02:04:14;;;;;;;2.35;0.57;;;21.70;57.20;;;;;;5071411;28;20029;-46
2022/09/25 02:06:42;;;;;;;0.68;0.52;;;21.60;57.20;;;;;;5063497;28;20021;-46
2022/09/25 02:09:11;;;;;;;1.08;0.80;;;21.60;57.80;;;;;;5064782;28;20500;-43
2022/09/25 02:11:43;;;;;;;0.75;0.50;;;21.60;57.80;;;;;;5072365;28;20031;-43
2022/09/25 02:14:21;;;;;;;1.05;0.70;;;21.60;57.90;;;;;;5068343;28;20029;-54
2022/09/25 02:16:47;;;;;;;;;;;21.60;58.10;;;;;;5083024;28;20044;-54
2022/09/25 02:22:18;;;;;;;1.00;0.65;;;21.50;58.30;;;;;;5080055;28;20063;-52
2022/09/25 02:24:53;;;;;;;0.73;0.50;;;21.50;58.40;;;;;;5075609;28;20029;-56
2022/09/25 02:27:19;;;;;;;0.60;0.50;;;21.50;58.60;;;;;;5082308;28;20039;-54
2022/09/25 02:29:45;;;;;;;1.52;0.77;;;21.50;58.70;;;;;;5075652;28;20864;-50
2022/09/25 02:32:12;;;;;;;2.72;0.50;;;21.60;58.80;;;;;;5083955;28;20064;-52
2022/09/25 02:34:38;;;;;;;0.50;0.50;;;21.60;58.90;;;;;;5041422;28;20079;-54
2022/09/25 02:37:14;;;;;;;0.65;0.65;;;21.60;59.00;;;;;;5060562;28;20071;-52
2022/09/25 02:39:41;;;;;;;1.45;0.80;;;21.50;58.90;;;;;;5053691;28;20029;-51
2022/09/25 02:42:29;;;;;;;1.10;0.63;;;21.50;59.00;;;;;;5026160;28;20037;-52
2022/09/25 02:45:13;;;;;;;0.70;0.68;;;21.50;59.10;;;;;;5054798;28;20072;-48
2022/09/25 02:48:17;;;;;;;1.10;0.70;;;21.50;59.10;;;;;;5057967;28;20148;-54
2022/09/25 02:51:08;;;;;;;1.02;0.73;;;21.50;59.30;;;;;;5061643;28;20032;-55
2022/09/25 02:53:49;;;;;;;0.77;0.55;;;21.50;59.60;;;;;;5051749;28;20060;-53
2022/09/25 02:56:18;;;;;;;2.10;0.70;;;21.50;60.00;;;;;;5024791;28;20033;-55
2022/09/25 02:58:50;;;;;;;1.48;0.90;;;21.50;60.30;;;;;;5053450;28;20033;-56
2022/09/25 03:01:17;;;;;;;1.85;0.80;;;21.50;60.30;;;;;;5020098;28;20052;-55
2022/09/25 03:03:44;;;;;;;1.40;0.77;;;21.50;60.40;;;;;;5046374;28;20040;-54
2022/09/25 03:06:10;;;;;;;0.65;0.65;;;21.50;60.50;;;;;;5062612;28;20029;-57
2022/09/25 03:08:39;;;;;;;0.80;0.73;;;21.50;60.60;;;;;;5031114;28;20055;-55
2022/09/25 03:11:07;;;;;;;2.50;0.95;;;21.50;60.60;;;;;;5052857;28;20068;-54
2022/09/25 03:13:33;;;;;;;3.13;0.80;;;21.50;60.70;;;;;;5057268;28;20488;-55
2022/09/25 03:16:07;;;;;;;1.20;0.80;;;21.50;60.70;;;;;;5053783;28;20037;-56
2022/09/25 03:18:33;;;;;;;1.00;0.73;;;21.50;60.70;;;;;;5045251;28;20021;-54
2022/09/25 03:20:59;;;;;;;2.15;0.68;;;21.50;60.70;;;;;;5059877;28;20033;-52
2022/09/25 03:23:25;;;;;;;5.18;0.70;;;21.50;60.80;;;;;;5061614;28;20044;-53
2022/09/25 03:25:54;;;;;;;1.15;0.60;;;21.50;61.10;;;;;;5059533;28;20414;-52
2022/09/25 03:28:21;;;;;;;1.20;0.80;;;21.50;61.90;;;;;;5062836;28;20032;-53
2022/09/25 03:30:57;;;;;;;1.25;1.00;;;21.50;61.20;;;;;;5063074;28;20067;-55
2022/09/25 03:33:24;;;;;;;1.52;0.77;;;21.50;61.30;;;;;;5057797;28;20091;-52
2022/09/25 03:35:59;;;;;;;1.23;0.63;;;21.50;61.40;;;;;;5064724;28;20040;-52
2022/09/25 03:38:25;;;;;;;1.00;0.77;;;21.50;61.40;;;;;;5058292;28;20051;-53
2022/09/25 03:40:52;;;;;;;1.08;0.63;;;21.50;61.40;;;;;;5067969;28;20040;-53
2022/09/25 03:43:18;;;;;;;1.10;0.60;;;21.50;61.50;;;;;;5072583;28;20033;-54
2022/09/25 03:45:44;;;;;;;0.80;0.70;;;21.50;61.50;;;;;;5057487;28;20025;-56
2022/09/25 03:48:10;;;;;;;0.68;0.60;;;21.50;61.60;;;;;;5053527;28;20048;-55
2022/09/25 03:50:38;;;;;;;1.40;0.80;;;21.50;61.60;;;;;;5061234;28;20059;-56
2022/09/25 03:53:04;;;;;;;0.75;0.60;;;21.50;61.60;;;;;;5058272;28;20052;-56
2022/09/25 03:55:30;;;;;;;0.70;0.60;;;21.50;61.70;;;;;;5061017;28;20029;-54
2022/09/25 03:57:56;;;;;;;2.40;0.70;;;21.50;61.70;;;;;;5050283;28;20057;-56
2022/09/25 04:00:23;;;;;;;1.17;0.60;;;21.50;61.70;;;;;;5053112;28;20044;-57
2022/09/25 04:02:49;;;;;;;0.70;0.50;;;21.50;61.80;;;;;;5054532;28;20083;-56
2022/09/25 04:05:17;;;;;;;1.10;0.60;;;21.50;61.80;;;;;;5052208;28;20036;-54
2022/09/25 04:07:43;;;;;;;0.70;0.60;;;21.50;61.90;;;;;;5063850;28;20043;-59
2022/09/25 04:10:10;;;;;;;0.98;0.57;;;21.50;61.90;;;;;;5059262;28;20037;-59
2022/09/25 04:12:36;;;;;;;0.60;0.60;;;21.50;61.90;;;;;;5075889;28;20016;-59
2022/09/25 04:15:05;;;;;;;0.52;0.40;;;21.40;61.90;;;;;;5057602;28;20041;-56
2022/09/25 04:17:31;;;;;;;0.80;0.50;;;21.40;62.00;;;;;;5053596;28;20040;-55
2022/09/25 04:19:57;;;;;;;0.65;0.52;;;21.40;62.10;;;;;;5062772;28;20017;-55
2022/09/25 04:22:24;;;;;;;0.55;0.45;;;21.40;62.10;;;;;;5073775;28;20127;-55
2022/09/25 04:24:50;;;;;;;0.88;0.63;;;21.40;62.30;;;;;;5062389;28;20051;-55
2022/09/25 04:27:18;;;;;;;0.63;0.60;;;21.40;62.30;;;;;;5063783;28;20021;-54
2022/09/25 04:29:44;;;;;;;0.80;0.60;;;21.40;62.30;;;;;;5058459;28;20040;-55
2022/09/25 04:34:55;;;;;;;0.60;0.52;;;21.40;62.50;;;;;;5056417;28;20051;-55
2022/09/25 04:37:25;;;;;;;1.95;0.45;;;21.40;62.80;;;;;;5068961;28;20043;-53
2022/09/25 04:39:54;;;;;;;1.35;0.50;;;21.40;62.80;;;;;;5066996;28;20396;-56
2022/09/25 04:42:24;;;;;;;0.98;0.68;;;21.40;62.90;;;;;;5064170;28;20032;-54
2022/09/25 04:44:51;;;;;;;0.63;0.50;;;21.40;63.00;;;;;;5061222;28;20024;-51
2022/09/25 04:47:18;;;;;;;0.65;0.60;;;21.40;62.90;;;;;;5044494;28;20508;-49
2022/09/25 04:49:44;;;;;;;1.15;0.60;;;21.40;62.90;;;;;;5074869;28;20032;-54
2022/09/25 04:52:14;;;;;;;1.75;0.63;;;21.40;62.90;;;;;;5066373;28;20037;-54
2022/09/25 04:54:41;;;;;;;0.70;0.60;;;21.40;62.90;;;;;;5046653;28;20035;-52
2022/09/25 04:57:08;;;;;;;0.73;0.50;;;21.40;62.90;;;;;;5074615;28;20577;-49
2022/09/25 04:59:34;;;;;;;;;;;21.40;63.00;;;;;;5069612;28;20041;-53
2022/09/25 05:02:01;;;;;;;1.52;0.50;;;21.40;62.80;;;;;;5062569;28;19912;-53
2022/09/25 05:04:27;;;;;;;0.50;0.43;;;21.30;62.90;;;;;;5063637;28;20033;-54
2022/09/25 05:06:53;;;;;;;0.98;0.50;;;21.40;63.00;;;;;;5079170;28;20044;-53
2022/09/25 05:09:19;;;;;;;0.38;0.35;;;21.30;62.90;;;;;;5080804;28;20032;-53
2022/09/25 05:11:46;;;;;;;0.93;0.45;;;21.30;63.00;;;;;;5067090;28;20102;-53
2022/09/25 05:14:12;;;;;;;0.70;0.70;;;21.30;62.90;;;;;;5061431;28;20659;-52
2022/09/25 05:16:39;;;;;;;0.65;0.40;;;21.30;62.90;;;;;;5061485;28;20045;-53
2022/09/25 05:19:05;;;;;;;0.55;0.43;;;21.30;62.90;;;;;;5037786;28;20056;-52
2022/09/25 05:21:31;;;;;;;0.55;0.40;;;21.30;62.90;;;;;;5047535;28;20029;-53
2022/09/25 05:23:58;;;;;;;0.50;0.50;;;21.30;63.00;;;;;;5054522;28;20036;-51
2022/09/25 05:26:25;;;;;;;0.55;0.55;;;21.30;63.00;;;;;;5070739;28;20040;-53
2022/09/25 05:28:51;;;;;;;0.82;0.50;;;21.30;63.10;;;;;;5048934;28;20048;-53
2022/09/25 05:31:17;;;;;;;1.45;0.68;;;21.30;63.10;;;;;;5068525;28;20057;-55
2022/09/25 05:33:43;;;;;;;0.60;0.40;;;21.20;63.10;;;;;;5065725;28;20061;-56
2022/09/25 05:36:09;;;;;;;0.77;0.60;;;21.20;63.10;;;;;;5061970;28;20111;-56
2022/09/25 05:38:37;;;;;;;0.73;0.50;;;21.20;63.10;;;;;;5069408;28;20051;-56
2022/09/25 05:41:08;;;;;;;0.85;0.63;;;21.20;63.10;;;;;;5051041;28;20036;-56
2022/09/25 05:43:38;;;;;;;0.50;0.50;;;21.30;63.20;;;;;;5081322;28;20088;-54
2022/09/25 05:46:04;;;;;;;0.73;0.60;;;21.30;63.20;;;;;;5061468;28;20060;-51
2022/09/25 05:48:30;;;;;;;0.97;0.70;;;21.20;63.20;;;;;;5070894;28;20086;-54
2022/09/25 05:50:57;;;;;;;0.57;0.50;;;21.20;63.40;;;;;;5064844;28;20033;-54
2022/09/25 05:53:23;;;;;;;0.65;0.50;;;21.20;63.60;;;;;;5049267;28;20029;-53
2022/09/25 05:55:50;;;;;;;0.80;0.55;;;21.20;63.70;;;;;;5067886;28;20032;-51
2022/09/25 05:58:16;;;;;;;0.85;0.50;;;21.20;63.70;;;;;;5065885;28;20041;-56
2022/09/25 06:00:42;;;;;;;0.43;0.43;;;21.20;63.70;;;;;;5044218;28;20036;-57
2022/09/25 06:03:09;;;;;;;0.40;0.40;;;21.20;63.80;;;;;;5062068;28;20029;-59
2022/09/25 06:05:35;;;;;;;0.50;0.40;;;21.20;63.70;;;;;;5054485;28;20025;-60
2022/09/25 06:08:22;;;;;;;0.75;0.50;;;21.20;63.70;;;;;;4963319;28;20139;-61
2022/09/25 06:10:52;;;;;;;1.52;0.50;;;21.20;63.80;;;;;;4978191;28;20042;-58
2022/09/25 06:13:19;;;;;;;0.80;0.50;;;21.20;63.80;;;;;;4979720;28;20069;-59
2022/09/25 06:15:45;;;;;;;2.90;0.50;;;21.20;63.80;;;;;;4980698;28;20035;-60
2022/09/25 06:18:11;;;;;;;0.95;0.55;;;21.20;63.80;;;;;;4990529;28;20054;-58
2022/09/25 06:20:37;;;;;;;1.00;0.60;;;21.20;63.80;;;;;;4980328;28;20153;-59
2022/09/25 06:23:03;;;;;;;1.08;0.50;;;21.20;63.80;;;;;;4977027;28;20094;-56
2022/09/25 06:25:31;;;;;;;0.47;0.43;;;21.20;63.80;;;;;;4981481;28;20031;-53
2022/09/25 06:28:01;;;;;;;0.50;0.47;;;21.20;63.90;;;;;;4978492;28;20483;-57
2022/09/25 06:30:34;;;;;;;0.45;0.45;;;21.20;63.80;;;;;;4979424;28;20031;-55
2022/09/25 06:33:08;;;;;;;0.60;0.50;;;21.20;63.90;;;;;;4978228;28;20047;-54
2022/09/25 06:35:35;;;;;;;0.70;0.50;;;21.20;63.90;;;;;;4972763;28;20034;-51
2022/09/25 06:38:03;;;;;;;0.40;0.40;;;21.20;63.90;;;;;;4971728;28;20062;-54
2022/09/25 06:40:30;;;;;;;1.02;0.60;;;21.20;63.90;;;;;;4973988;28;20519;-55
2022/09/25 06:42:57;;;;;;;1.33;0.60;;;21.10;63.80;;;;;;4961878;28;20190;-50
2022/09/25 06:45:23;;;;;;;;;;;21.20;63.90;;;;;;5011745;28;20029;-53
2022/09/25 06:47:50;;;;;;;0.60;0.50;;;21.20;63.90;;;;;;5076208;28;19909;-54
2022/09/25 06:50:16;;;;;;;0.77;0.50;;;21.10;63.90;;;;;;5056971;28;20028;-51
2022/09/25 06:52:43;;;;;;;1.07;0.50;;;21.10;63.90;;;;;;5057178;28;20025;-53
2022/09/25 06:55:09;;;;;;;1.02;0.52;;;21.10;63.90;;;;;;5061510;28;20033;-54
2022/09/25 06:57:36;;;;;;;0.63;0.57;;;21.10;64.70;;;;;;5063640;28;20051;-56
2022/09/25 07:00:03;;;;;;;;;;;21.10;64.00;;;;;;5073017;28;20118;-56
2022/09/25 07:05:15;;;;;;;0.88;0.70;;;21.10;64.00;;;;;;5079964;28;20464;-56
2022/09/25 07:07:41;;;;;;;0.68;0.60;;;21.10;64.10;;;;;;5062472;28;20036;-56
2022/09/25 07:10:08;;;;;;;0.80;0.60;;;21.10;64.10;;;;;;5064974;28;20052;-55
2022/09/25 07:12:34;;;;;;;0.60;0.60;;;21.00;64.10;;;;;;5063844;28;20092;-55
2022/09/25 07:15:00;;;;;;;1.00;0.60;;;21.10;64.20;;;;;;5056235;28;20102;-54
2022/09/25 07:17:26;;;;;;;0.73;0.60;;;21.00;64.20;;;;;;5063161;28;20036;-54
2022/09/25 07:19:52;;;;;;;0.57;0.50;;;21.00;64.30;;;;;;5071827;28;20029;-56
2022/09/25 07:22:18;;;;;;;1.02;0.80;;;21.00;64.40;;;;;;5076532;28;20696;-54
2022/09/25 07:24:44;;;;;;;1.02;0.60;;;21.00;64.50;;;;;;5058500;28;20037;-56
2022/09/25 07:27:10;;;;;;;0.98;0.60;;;21.00;64.50;;;;;;5064519;28;20067;-55
2022/09/25 07:29:36;;;;;;;1.15;0.70;;;21.00;64.60;;;;;;5064607;28;20029;-57
2022/09/25 07:32:03;;;;;;;0.73;0.70;;;21.00;64.60;;;;;;5064600;28;20045;-57
2022/09/25 07:34:30;;;;;;;0.50;0.43;;;21.00;64.60;;;;;;5058548;28;20041;-57
2022/09/25 07:36:56;;;;;;;1.13;0.52;;;21.00;64.60;;;;;;5044290;28;20049;-58
2022/09/25 07:39:22;;;;;;;1.10;0.60;;;21.00;64.60;;;;;;5060693;28;20032;-58
2022/09/25 07:41:48;;;;;;;1.50;0.60;;;21.00;64.70;;;;;;5057602;28;20029;-59
2022/09/25 07:44:15;;;;;;;0.60;0.60;;;21.00;64.70;;;;;;5059679;28;20044;-58
2022/09/25 07:46:43;;;;;;;0.70;0.50;;;21.00;64.60;;;;;;5044548;28;20048;-58
2022/09/25 07:49:09;;;;;;;0.65;0.65;;;21.00;64.70;;;;;;5044827;28;20037;-56
2022/09/25 07:51:35;;;;;;;1.00;0.68;;;21.00;64.70;;;;;;5062118;28;20059;-57
2022/09/25 07:54:01;;;;;;;0.90;0.57;;;20.90;64.60;;;;;;5050150;28;20060;-57
2022/09/25 07:56:27;;;;;;;1.13;0.65;;;21.00;64.70;;;;;;5057235;28;20051;-56
2022/09/25 07:58:53;;;;;;;0.70;0.60;;;21.00;64.80;;;;;;5047021;28;20029;-58
2022/09/25 08:01:19;;;;;;;0.80;0.43;;;21.00;64.80;;;;;;5050998;28;20030;-57
2022/09/25 08:03:46;;;;;;;1.08;0.50;;;20.90;64.70;;;;;;5050379;28;20034;-57
2022/09/25 08:06:13;;;;;;;0.80;0.63;;;20.90;64.80;;;;;;5053568;28;20065;-57
2022/09/25 08:08:40;;;;;;;2.08;0.68;;;20.90;64.80;;;;;;5049461;28;20057;-55
2022/09/25 08:11:10;;;;;;;0.60;0.60;;;20.90;64.90;;;;;;5060243;28;20129;-53
2022/09/25 08:13:39;;;;;;;0.77;0.68;;;20.90;64.90;;;;;;5053695;28;20732;-52
2022/09/25 08:16:07;;;;;;;0.77;0.63;;;20.90;65.00;;;;;;5053957;28;20045;-56
2022/09/25 08:18:34;;;;;;;0.68;0.60;;;20.90;65.00;;;;;;5052424;28;20032;-52
2022/09/25 08:21:03;;;;;;;0.60;0.50;;;20.90;65.00;;;;;;5064131;28;20032;-54
2022/09/25 08:23:29;;;;;;;0.60;0.60;;;20.90;65.00;;;;;;5050832;28;20021;-54
2022/09/25 08:25:56;;;;;;;0.77;0.70;;;20.90;65.00;;;;;;5063226;28;20024;-56
2022/09/25 08:28:22;;;;;;;0.57;0.50;;;20.90;65.00;;;;;;5058043;28;20029;-54
2022/09/25 08:30:48;;;;;;;0.80;0.75;;;20.90;65.10;;;;;;5044312;28;20029;-53
2022/09/25 08:33:14;;;;;;;0.85;0.50;;;20.90;65.10;;;;;;5049773;28;20037;-53
2022/09/25 08:35:41;;;;;;;1.17;0.60;;;20.90;65.10;;;;;;5057924;28;20057;-50
2022/09/25 08:38:08;;;;;;;0.50;0.50;;;20.90;65.10;;;;;;5061432;28;20041;-52
2022/09/25 08:40:37;;;;;;;0.55;0.50;;;20.80;65.80;;;;;;5063943;28;20037;-51
2022/09/25 08:43:03;;;;;;;1.33;0.75;;;20.80;65.20;;;;;;5039559;28;20032;-51
2022/09/25 08:51:06;;;;;;;0.70;0.50;;;20.80;65.40;;;;;;5056208;28;20101;-61
2022/09/25 08:53:33;;;;;;;0.40;0.40;;;20.80;65.40;;;;;;5054944;28;20097;-54
2022/09/25 08:56:16;;;;;;;1.13;0.63;;;20.80;65.40;;;;;;5046450;28;20029;-55
2022/09/25 08:59:05;;;;;;;0.55;0.43;;;20.80;65.40;;;;;;5039521;28;20021;-56
2022/09/25 09:01:52;;;;;;;0.77;0.70;;;20.80;65.40;;;;;;5061844;28;20033;-58
2022/09/25 09:04:30;;;;;;;0.95;0.63;;;20.80;65.40;;;;;;5015664;28;20029;-52
2022/09/25 09:07:08;;;;;;;0.68;0.63;;;20.80;65.50;;;;;;5039444;28;20132;-53
2022/09/25 09:09:53;;;;;;;0.68;0.68;;;20.80;65.40;;;;;;5031482;28;20038;-53
2022/09/25 09:12:40;;;;;;;1.05;0.50;;;20.70;65.40;;;;;;5055869;28;20033;-51
2022/09/25 09:15:15;;;;;;;0.65;0.60;;;20.70;65.40;;;;;;5053561;28;20033;-53
2022/09/25 09:17:41;;;;;;;0.82;0.60;;;20.70;65.50;;;;;;5035571;28;20029;-53
2022/09/25 09:20:18;;;;;;;0.73;0.70;;;20.70;65.40;;;;;;5052252;28;20033;-53
2022/09/25 09:22:49;;;;;;;0.50;0.50;;;20.70;65.40;;;;;;5053149;28;20060;-53
2022/09/25 09:25:27;;;;;;;1.77;0.60;;;20.70;65.50;;;;;;5048207;28;20053;-54
2022/09/25 09:28:12;;;;;;;;;;;20.70;65.50;;;;;;5062877;28;20024;-54
2022/09/25 09:30:49;;;;;;;0.50;0.50;;;20.70;65.50;;;;;;5048375;28;19913;-49
2022/09/25 09:33:45;;;;;;;0.95;0.68;;;20.70;65.60;;;;;;5054144;28;20076;-53
2022/09/25 09:36:23;;;;;;;0.55;0.50;;;20.70;65.60;;;;;;5068105;28;20029;-51
2022/09/25 09:38:58;;;;;;;1.48;0.70;;;20.70;65.70;;;;;;5045215;28;20025;-53
2022/09/25 09:41:43;;;;;;;0.50;0.50;;;20.60;65.60;;;;;;5058721;28;20573;-57
2022/09/25 09:44:27;;;;;;;0.65;0.60;;;20.60;65.60;;;;;;5042974;28;20029;-56
2022/09/25 09:47:17;;;;;;;1.50;0.70;;;20.60;65.60;;;;;;5064141;28;20291;-53
2022/09/25 09:49:52;;;;;;;1.50;0.75;;;20.60;65.60;;;;;;5061121;28;20033;-57
2022/09/25 09:52:27;;;;;;;2.05;0.60;;;20.60;65.60;;;;;;5041068;28;20047;-59
2022/09/25 09:55:19;;;;;;;2.15;0.60;;;20.60;66.00;;;;;;5041899;28;20061;-56
2022/09/25 09:57:50;;;;;;;0.50;0.50;;;20.60;66.10;;;;;;5044512;28;20033;-56
2022/09/25 10:00:18;;;;;;;0.80;0.60;;;20.60;66.00;;;;;;5067828;28;20107;-56
2022/09/25 10:03:03;;;;;;;0.88;0.63;;;20.50;66.10;;;;;;5049341;28;20371;-56
2022/09/25 10:05:47;;;;;;;0.50;0.43;;;20.50;66.50;;;;;;5054532;28;20025;-52
2022/09/25 10:08:14;;;;;;;0.63;0.60;;;20.50;66.60;;;;;;5051756;28;20033;-53
2022/09/25 10:10:46;;;;;;;0.73;0.50;;;20.50;66.70;;;;;;5041959;28;20024;-53
2022/09/25 10:13:33;;;;;;;0.70;0.60;;;20.50;66.70;;;;;;5050147;28;20032;-55
2022/09/25 10:16:20;;;;;;;0.73;0.70;;;20.50;66.80;;;;;;5048237;28;20117;-57
2022/09/25 10:18:59;;;;;;;1.00;0.60;;;20.50;66.90;;;;;;5070359;28;20045;-56
2022/09/25 10:21:53;;;;;;;0.65;0.63;;;20.40;66.90;;;;;;5043121;28;20048;-53
2022/09/25 10:24:51;;;;;;;1.10;0.50;;;20.40;67.00;;;;;;5029396;28;20501;-54
2022/09/25 10:27:37;;;;;;;0.70;0.60;;;20.40;66.80;;;;;;5051447;28;20040;-53
2022/09/25 10:30:09;;;;;;;0.80;0.60;;;20.40;66.80;;;;;;5052517;28;20075;-59
2022/09/25 10:32:42;;;;;;;1.17;0.60;;;20.40;66.80;;;;;;5064639;28;20039;-57
2022/09/25 10:35:37;;;;;;;0.70;0.65;;;20.40;66.80;;;;;;5052170;28;20567;-57
2022/09/25 10:38:03;;;;;;;0.73;0.50;;;20.40;66.90;;;;;;5061821;28;20132;-57
2022/09/25 10:40:37;;;;;;;1.10;0.80;;;20.40;67.00;;;;;;5065956;28;20021;-58
2022/09/25 10:43:19;;;;;;;0.82;0.68;;;20.30;67.00;;;;;;5043560;28;20040;-54
2022/09/25 10:45:48;;;;;;;0.70;0.50;;;20.30;67.10;;;;;;5060198;28;20036;-55
2022/09/25 10:51:25;;;;;;;0.90;0.60;;;20.30;67.00;;;;;;5049885;28;20036;-55
2022/09/25 10:54:11;;;;;;;0.75;0.57;;;20.30;66.90;;;;;;5071923;28;20033;-56
2022/09/25 10:56:38;;;;;;;0.73;0.68;;;20.30;67.00;;;;;;5072291;28;20040;-58
2022/09/25 10:59:24;;;;;;;0.82;0.68;;;20.30;67.00;;;;;;5045979;28;20064;-55
2022/09/25 11:01:52;;;;;;;0.60;0.60;;;20.30;67.10;;;;;;5063408;28;20120;-56
2022/09/25 11:04:23;;;;;;;0.80;0.50;;;20.30;66.90;;;;;;5051380;28;20025;-55
2022/09/25 11:06:57;;;;;;;1.05;0.60;;;20.30;67.00;;;;;;5065037;28;20029;-54
2022/09/25 11:09:27;;;;;;;0.50;0.50;;;20.30;67.00;;;;;;5073072;28;20615;-57
2022/09/25 11:12:23;;;;;;;0.63;0.52;;;20.30;67.00;;;;;;5055642;28;20036;-55
2022/09/25 11:15:00;;;;;;;1.80;0.80;;;20.30;66.90;;;;;;5028815;28;20123;-56
2022/09/25 11:17:39;;;;;;;1.10;0.73;;;20.30;67.00;;;;;;5040081;28;20036;-56
2022/09/25 11:20:29;;;;;;;0.50;0.50;;;20.30;67.00;;;;;;5070506;28;20029;-55
2022/09/25 11:23:15;;;;;;;0.68;0.60;;;20.30;67.10;;;;;;5043466;28;20045;-54
2022/09/25 11:26:04;;;;;;;0.60;0.50;;;20.40;67.10;;;;;;5052642;28;20085;-52
2022/09/25 11:28:43;;;;;;;0.70;0.57;;;20.40;67.10;;;;;;5045137;28;20036;-56
2022/09/25 11:31:20;;;;;;;0.77;0.63;;;20.40;67.10;;;;;;5020178;28;20188;-55
2022/09/25 11:33:55;;;;;;;0.55;0.55;;;20.40;67.10;;;;;;5069664;28;20055;-55
2022/09/25 11:36:52;;;;;;;0.70;0.70;;;20.40;67.10;;;;;;5084979;28;20031;-54
2022/09/25 11:42:58;;;;;;;1.13;0.80;;;20.40;67.10;;;;;;5005314;28;20061;-53
2022/09/25 11:45:29;;;;;;;0.85;0.63;;;20.40;67.00;;;;;;4998653;28;20038;-56
2022/09/25 11:48:06;;;;;;;0.60;0.55;;;20.40;67.10;;;;;;5012603;28;20038;-55
2022/09/25 11:50:58;;;;;;;0.77;0.57;;;20.40;67.00;;;;;;5007705;28;20609;-54
2022/09/25 11:53:42;;;;;;;1.00;0.70;;;20.40;67.10;;;;;;4995212;28;20038;-55
2022/09/25 11:56:41;;;;;;;0.90;0.68;;;20.40;67.10;;;;;;4996086;28;20034;-52
2022/09/25 11:59:16;;;;;;;0.98;0.70;;;20.30;67.10;;;;;;5001281;28;20570;-56
2022/09/25 12:02:06;;;;;;;0.85;0.60;;;20.30;67.00;;;;;;4985436;28;20035;-54
2022/09/25 12:04:39;;;;;;;0.50;0.50;;;20.30;67.10;;;;;;4987019;28;20067;-52
2022/09/25 12:07:25;;;;;;;0.60;0.50;;;20.30;67.20;;;;;;5003815;28;20069;-55
2022/09/25 12:10:02;;;;;;;0.88;0.65;;;20.30;67.20;;;;;;4989923;28;20026;-55
2022/09/25 12:12:43;;;;;;;0.88;0.70;;;20.30;67.20;;;;;;4997809;28;20046;-55
2022/09/25 12:15:13;;;;;;;1.35;0.50;;;20.30;67.10;;;;;;5001321;28;20026;-55
2022/09/25 12:18:02;;;;;;;0.70;0.60;;;20.30;67.10;;;;;;5018493;28;20060;-52
2022/09/25 12:20:40;;;;;;;1.88;0.80;;;20.30;67.10;;;;;;5084023;28;20027;-58
2022/09/25 12:23:30;;;;;;;0.60;0.60;;;20.30;67.00;;;;;;5081161;28;20028;-53
2022/09/25 12:26:24;;;;;;;1.92;0.70;;;20.30;67.00;;;;;;4991790;28;20051;-55
2022/09/25 12:28:59;;;;;;;0.65;0.57;;;20.30;66.90;;;;;;4995582;28;20045;-54
2022/09/25 12:31:43;;;;;;;1.00;0.70;;;20.30;67.00;;;;;;4996838;28;20039;-55
2022/09/25 12:34:25;;;;;;;0.90;0.70;;;20.30;66.90;;;;;;5001096;28;20042;-56
2022/09/25 12:37:07;;;;;;;1.00;0.60;;;20.30;67.00;;;;;;4996399;28;20602;-56
2022/09/25 12:39:42;;;;;;;1.15;0.50;;;20.30;67.00;;;;;;4998200;28;20045;-55
2022/09/25 12:42:16;;;;;;;0.80;0.60;;;20.30;67.10;;;;;;4982293;28;20073;-56
2022/09/25 12:44:55;;;;;;;0.73;0.63;;;20.30;67.30;;;;;;4998453;28;20046;-54
2022/09/25 12:47:32;;;;;;;1.02;0.50;;;20.30;67.30;;;;;;4988495;28;20046;-57
2022/09/25 12:50:17;;;;;;;0.82;0.75;;;20.30;67.30;;;;;;4995783;28;20038;-51
2022/09/25 12:52:58;;;;;;;0.70;0.70;;;20.30;67.30;;;;;;4989198;28;20034;-54
2022/09/25 12:55:52;;;;;;;0.75;0.60;;;20.30;67.30;;;;;;4983247;28;20027;-54
2022/09/25 12:58:26;;;;;;;0.65;0.60;;;20.30;67.60;;;;;;4993347;28;20104;-56
2022/09/25 13:00:56;;;;;;;0.75;0.60;;;20.30;67.40;;;;;;4987706;28;20545;-55
2022/09/25 13:04:03;;;;;;;0.85;0.60;;;20.30;67.40;;;;;;5023831;28;20037;-56
2022/09/25 13:06:47;;;;;;;0.70;0.65;;;20.30;67.40;;;;;;5074170;28;20111;-52
2022/09/25 13:09:43;;;;;;;0.70;0.70;;;20.30;67.50;;;;;;5074934;28;20036;-53
2022/09/25 13:12:35;;;;;;;0.63;0.50;;;20.30;67.50;;;;;;5082447;28;20025;-50
2022/09/25 13:15:14;;;;;;;0.70;0.60;;;20.30;67.60;;;;;;5073902;28;20488;-55
2022/09/25 13:17:41;;;;;;;0.88;0.50;;;20.30;67.60;;;;;;5079575;28;20040;-53
2022/09/25 13:20:35;;;;;;;1.38;0.60;;;20.30;67.50;;;;;;5080756;28;20077;-55
2022/09/25 13:23:12;;;;;;;0.75;0.68;;;20.30;67.60;;;;;;5074251;28;20140;-55
2022/09/25 13:25:46;;;;;;;0.80;0.60;;;20.30;67.60;;;;;;5077565;28;20021;-54
2022/09/25 13:28:21;;;;;;;0.68;0.60;;;20.30;67.60;;;;;;5086470;28;20032;-54
2022/09/25 13:31:17;;;;;;;0.90;0.80;;;20.30;67.60;;;;;;5065015;28;20037;-52
2022/09/25 13:34:00;;;;;;;0.60;0.60;;;20.30;67.60;;;;;;5075344;28;20044;-54
2022/09/25 13:36:55;;;;;;;0.88;0.60;;;20.30;67.60;;;;;;5081116;28;20041;-54